createdAt,value
2022-10-10T00:00:05.285Z,7.87
2022-10-10T00:02:32.003Z,7.86
2022-10-10T00:04:58.749Z,7.80
2022-10-10T00:07:25.346Z,7.80
2022-10-10T00:09:52.012Z,7.76
2022-10-10T00:12:18.642Z,7.78
2022-10-10T00:14:45.323Z,7.80
2022-10-10T00:17:11.998Z,7.81
2022-10-10T00:19:38.649Z,7.82
2022-10-10T00:22:05.326Z,7.79
2022-10-10T00:24:31.934Z,7.77
2022-10-10T00:26:58.579Z,7.74
2022-10-10T00:29:25.444Z,7.76
2022-10-10T00:31:52.084Z,7.75
2022-10-10T00:34:18.735Z,7.74
2022-10-10T00:36:45.378Z,7.74
2022-10-10T00:39:11.992Z,7.72
2022-10-10T00:41:38.652Z,7.72
2022-10-10T00:44:13.402Z,7.73
2022-10-10T00:46:40.207Z,7.70
2022-10-10T00:49:17.815Z,7.69
2022-10-10T00:51:46.411Z,7.66
2022-10-10T00:54:13.856Z,7.62
2022-10-10T00:56:49.088Z,7.64
2022-10-10T00:59:15.793Z,7.62
2022-10-10T01:01:42.610Z,7.59
2022-10-10T01:04:28.148Z,7.61
2022-10-10T01:06:54.848Z,7.60
2022-10-10T01:09:21.506Z,7.59
2022-10-10T01:12:04.231Z,7.59
2022-10-10T01:14:52.607Z,7.57
2022-10-10T01:17:20.851Z,7.57
2022-10-10T01:19:59.473Z,7.55
2022-10-10T01:22:48.288Z,7.53
2022-10-10T01:25:18.478Z,7.51
2022-10-10T01:27:52.198Z,7.49
2022-10-10T01:30:23.109Z,7.47
2022-10-10T01:32:54.412Z,7.46
2022-10-10T01:35:44.143Z,7.45
2022-10-10T01:38:40.272Z,7.41
2022-10-10T01:41:10.785Z,7.37
2022-10-10T01:43:37.547Z,7.34
2022-10-10T01:46:10.665Z,7.31
2022-10-10T01:48:37.384Z,7.29
2022-10-10T01:51:15.816Z,7.25
2022-10-10T01:53:50.250Z,7.20
2022-10-10T01:56:38.006Z,7.17
2022-10-10T01:59:20.546Z,7.16
2022-10-10T02:01:55.472Z,7.16
2022-10-10T02:04:38.843Z,7.11
2022-10-10T02:07:09.283Z,7.08
2022-10-10T02:09:38.244Z,7.03
2022-10-10T02:12:05.261Z,6.98
2022-10-10T02:14:34.269Z,6.96
2022-10-10T02:17:00.990Z,6.94
2022-10-10T02:19:27.921Z,6.91
2022-10-10T02:21:54.756Z,6.86
2022-10-10T02:24:21.727Z,6.87
2022-10-10T02:26:59.416Z,6.84
2022-10-10T02:29:28.505Z,6.76
2022-10-10T02:32:23.270Z,6.73
2022-10-10T02:34:51.964Z,6.68
2022-10-10T02:37:18.594Z,6.66
2022-10-10T02:39:48.090Z,6.64
2022-10-10T02:42:15.573Z,6.60
2022-10-10T02:44:42.238Z,6.59
2022-10-10T02:47:09.045Z,6.58
2022-10-10T02:49:35.842Z,6.57
2022-10-10T02:52:02.660Z,6.53
2022-10-10T02:54:29.256Z,6.50
2022-10-10T02:56:56.101Z,6.48
2022-10-10T02:59:22.781Z,6.45
2022-10-10T03:03:09.681Z,6.44
2022-10-10T03:05:36.537Z,6.38
2022-10-10T03:08:04.352Z,6.37
2022-10-10T03:10:33.691Z,6.35
2022-10-10T03:13:00.298Z,6.34
2022-10-10T03:15:26.962Z,6.32
2022-10-10T03:17:53.700Z,6.29
2022-10-10T03:20:20.444Z,6.27
2022-10-10T03:22:47.148Z,6.25
2022-10-10T03:25:13.828Z,6.23
2022-10-10T03:27:40.559Z,6.21
2022-10-10T03:30:07.915Z,6.15
2022-10-10T03:32:34.573Z,6.17
2022-10-10T03:35:01.258Z,6.17
2022-10-10T03:37:28.005Z,6.17
2022-10-10T03:39:54.576Z,6.17
2022-10-10T03:42:21.293Z,6.19
2022-10-10T03:44:47.934Z,6.20
2022-10-10T03:47:14.658Z,6.19
2022-10-10T03:49:41.269Z,6.19
2022-10-10T03:52:07.922Z,6.18
2022-10-10T03:54:34.554Z,6.17
2022-10-10T03:57:01.295Z,6.16
2022-10-10T03:59:27.943Z,6.13
2022-10-10T04:01:54.617Z,6.08
2022-10-10T04:04:21.339Z,6.05
2022-10-10T04:06:47.995Z,6.03
2022-10-10T04:09:14.650Z,6.03
2022-10-10T04:11:41.413Z,6.02
2022-10-10T04:14:08.101Z,6.02
2022-10-10T04:16:34.809Z,6.02
2022-10-10T04:19:01.421Z,6.04
2022-10-10T04:21:28.159Z,6.03
2022-10-10T04:23:54.854Z,6.00
2022-10-10T04:26:21.477Z,5.99
2022-10-10T04:28:48.329Z,6.00
2022-10-10T04:31:14.873Z,6.00
2022-10-10T04:33:41.621Z,6.00
2022-10-10T04:36:08.394Z,6.01
2022-10-10T04:38:35.089Z,6.02
2022-10-10T04:41:01.824Z,6.03
2022-10-10T04:43:28.486Z,6.05
2022-10-10T04:45:57.651Z,6.03
2022-10-10T04:48:24.669Z,6.02
2022-10-10T04:50:55.431Z,6.03
2022-10-10T04:53:22.125Z,6.02
2022-10-10T04:55:48.976Z,5.99
2022-10-10T04:58:15.588Z,6.02
2022-10-10T05:00:42.257Z,6.03
2022-10-10T05:03:10.237Z,6.05
2022-10-10T05:05:37.190Z,6.07
2022-10-10T05:08:03.894Z,6.09
2022-10-10T05:10:30.619Z,6.10
2022-10-10T05:12:57.342Z,6.11
2022-10-10T05:15:24.815Z,6.12
2022-10-10T05:17:51.522Z,6.15
2022-10-10T05:20:18.228Z,6.19
2022-10-10T05:22:44.835Z,6.24
2022-10-10T05:25:11.964Z,6.28
2022-10-10T05:27:38.608Z,6.28
2022-10-10T05:30:05.717Z,6.29
2022-10-10T05:32:32.365Z,6.31
2022-10-10T05:34:59.027Z,6.34
2022-10-10T05:37:25.703Z,6.38
2022-10-10T05:39:54.677Z,6.43
2022-10-10T05:42:21.616Z,6.48
2022-10-10T05:44:48.332Z,6.54
2022-10-10T05:47:15.246Z,6.59
2022-10-10T05:49:41.882Z,6.64
2022-10-10T05:52:08.826Z,6.67
2022-10-10T05:54:36.924Z,6.70
2022-10-10T05:57:03.580Z,6.74
2022-10-10T05:59:30.245Z,6.78
2022-10-10T06:01:57.402Z,6.83
2022-10-10T06:04:24.180Z,6.89
2022-10-10T06:06:50.823Z,6.94
2022-10-10T06:09:17.505Z,6.95
2022-10-10T06:11:44.155Z,6.99
2022-10-10T06:14:10.907Z,7.02
2022-10-10T06:16:39.382Z,7.06
2022-10-10T06:19:06.178Z,7.10
2022-10-10T06:21:32.762Z,7.16
2022-10-10T06:23:59.496Z,7.23
2022-10-10T06:26:26.172Z,7.30
2022-10-10T06:28:52.873Z,7.37
2022-10-10T06:31:19.793Z,7.43
2022-10-10T06:33:46.615Z,7.49
2022-10-10T06:36:13.417Z,7.54
2022-10-10T06:38:40.929Z,7.57
2022-10-10T06:41:07.818Z,7.60
2022-10-10T06:43:34.431Z,7.67
2022-10-10T06:46:01.175Z,7.73
2022-10-10T06:48:29.958Z,7.78
2022-10-10T06:51:05.147Z,7.83
2022-10-10T06:53:32.262Z,7.89
2022-10-10T06:55:59.108Z,7.96
2022-10-10T06:58:26.734Z,8.01
2022-10-10T07:00:54.357Z,8.06
2022-10-10T07:03:21.591Z,8.11
2022-10-10T07:05:56.119Z,8.20
2022-10-10T07:08:23.407Z,8.31
2022-10-10T07:10:50.089Z,8.40
2022-10-10T07:13:16.955Z,8.43
2022-10-10T07:15:43.697Z,8.45
2022-10-10T07:18:10.621Z,8.48
2022-10-10T07:20:37.635Z,8.52
2022-10-10T07:23:04.507Z,8.56
2022-10-10T07:25:31.296Z,8.59
2022-10-10T07:27:58.183Z,8.62
2022-10-10T07:30:25.201Z,8.64
2022-10-10T07:32:56.517Z,8.69
2022-10-10T07:35:23.402Z,8.76
2022-10-10T07:37:53.774Z,8.82
2022-10-10T07:40:20.439Z,8.88
2022-10-10T07:42:47.148Z,8.95
2022-10-10T07:45:13.831Z,9.05
2022-10-10T07:47:40.635Z,9.14
2022-10-10T07:50:07.988Z,9.23
2022-10-10T07:52:35.539Z,9.33
2022-10-10T07:55:02.604Z,9.41
2022-10-10T07:57:29.731Z,9.48
2022-10-10T07:59:56.437Z,9.54
2022-10-10T08:02:23.150Z,9.64
2022-10-10T08:04:50.141Z,9.74
2022-10-10T08:07:16.859Z,9.83
2022-10-10T08:09:43.474Z,9.92
2022-10-10T08:12:10.160Z,9.99
2022-10-10T08:14:36.883Z,10.05
2022-10-10T08:17:03.548Z,10.11
2022-10-10T08:19:30.354Z,10.21
2022-10-10T08:21:57.178Z,10.26
2022-10-10T08:24:23.776Z,10.37
2022-10-10T08:26:51.204Z,10.43
2022-10-10T08:29:18.392Z,10.51
2022-10-10T08:31:46.552Z,10.59
2022-10-10T08:34:13.366Z,10.64
2022-10-10T08:36:40.091Z,10.69
2022-10-10T08:39:07.395Z,10.75
2022-10-10T08:41:42.918Z,10.81
2022-10-10T08:44:31.968Z,10.86
2022-10-10T08:47:06.979Z,10.95
2022-10-10T08:49:36.034Z,11.01
2022-10-10T08:52:31.655Z,11.08
2022-10-10T08:54:59.184Z,11.18
2022-10-10T08:57:31.050Z,11.25
2022-10-10T09:00:05.191Z,11.29
2022-10-10T09:02:55.288Z,11.29
2022-10-10T09:05:40.318Z,11.32
2022-10-10T09:08:49.311Z,11.40
2022-10-10T09:11:15.918Z,11.50
2022-10-10T09:13:48.899Z,11.55
2022-10-10T09:16:33.900Z,11.58
2022-10-10T09:19:18.359Z,11.65
2022-10-10T09:21:45.340Z,11.70
2022-10-10T09:24:20.279Z,11.74
2022-10-10T09:26:49.900Z,11.79
2022-10-10T09:29:22.433Z,11.83
2022-10-10T09:31:51.660Z,11.87
2022-10-10T09:34:20.832Z,11.91
2022-10-10T09:36:47.620Z,12.01
2022-10-10T09:39:14.196Z,12.10
2022-10-10T09:41:46.962Z,12.13
2022-10-10T09:44:14.343Z,12.17
2022-10-10T09:46:41.088Z,12.18
2022-10-10T09:49:07.671Z,12.14
2022-10-10T09:51:34.383Z,12.17
2022-10-10T09:54:01.077Z,12.18
2022-10-10T09:56:28.522Z,12.21
2022-10-10T09:58:55.485Z,12.24
2022-10-10T10:01:27.377Z,12.27
2022-10-10T10:04:23.495Z,12.31
2022-10-10T10:06:53.548Z,12.33
2022-10-10T10:09:21.193Z,12.38
2022-10-10T10:11:54.747Z,12.34
2022-10-10T10:14:51.126Z,12.41
2022-10-10T10:17:19.052Z,12.46
2022-10-10T10:19:46.298Z,12.47
2022-10-10T10:22:39.441Z,12.48
2022-10-10T10:25:34.984Z,12.50
2022-10-10T10:28:10.895Z,12.53
2022-10-10T10:30:40.765Z,12.57
2022-10-10T10:33:45.575Z,12.63
2022-10-10T10:36:39.829Z,12.66
2022-10-10T10:39:28.165Z,12.67
2022-10-10T10:41:59.175Z,12.69
2022-10-10T10:44:28.729Z,12.70
2022-10-10T10:47:20.427Z,12.74
2022-10-10T10:50:10.478Z,12.77
2022-10-10T10:52:43.299Z,12.80
2022-10-10T10:55:26.102Z,12.84
2022-10-10T10:58:58.041Z,12.83
2022-10-10T11:01:28.714Z,12.95
2022-10-10T11:05:18.450Z,13.02
2022-10-10T11:07:20.613Z,13.03
2022-10-10T11:09:56.608Z,13.04
2022-10-10T11:12:29.057Z,13.08
2022-10-10T11:15:01.885Z,13.12
2022-10-10T11:17:39.118Z,13.13
2022-10-10T11:20:34.869Z,13.15
2022-10-10T11:23:11.581Z,13.21
2022-10-10T11:25:47.769Z,13.24
2022-10-10T11:28:21.138Z,13.23
2022-10-10T11:30:51.728Z,13.20
2022-10-10T11:33:23.023Z,13.18
2022-10-10T11:36:01.839Z,13.13
2022-10-10T11:38:35.089Z,13.11
2022-10-10T11:41:03.427Z,13.11
2022-10-10T11:43:32.017Z,13.14
2022-10-10T11:46:43.749Z,13.13
2022-10-10T11:49:13.322Z,13.11
2022-10-10T11:52:14.953Z,13.10
2022-10-10T11:54:50.451Z,13.08
2022-10-10T11:57:23.119Z,13.06
2022-10-10T11:59:52.888Z,13.05
2022-10-10T12:02:31.314Z,13.04
2022-10-10T12:04:58.094Z,13.03
2022-10-10T12:07:57.664Z,13.04
2022-10-10T12:10:27.148Z,13.05
2022-10-10T12:12:54.983Z,13.00
2022-10-10T12:15:40.842Z,12.94
2022-10-10T12:18:27.769Z,12.88
2022-10-10T12:21:05.013Z,12.89
2022-10-10T12:23:31.786Z,12.90
2022-10-10T12:25:58.804Z,12.94
2022-10-10T12:28:28.502Z,12.97
2022-10-10T12:30:58.263Z,12.95
2022-10-10T12:33:30.996Z,12.89
2022-10-10T12:35:57.710Z,12.83
2022-10-10T12:38:25.129Z,12.83
2022-10-10T12:40:57.697Z,12.86
2022-10-10T12:44:03.308Z,12.88
2022-10-10T12:46:33.338Z,12.89
2022-10-10T12:49:14.085Z,12.90
2022-10-10T12:51:40.911Z,12.91
2022-10-10T12:54:08.370Z,12.92
2022-10-10T12:56:42.635Z,12.93
2022-10-10T12:59:20.724Z,12.91
2022-10-10T13:01:52.032Z,12.89
2022-10-10T13:04:18.847Z,12.86
2022-10-10T13:06:45.690Z,12.84
2022-10-10T13:09:22.029Z,12.83
2022-10-10T13:11:58.742Z,12.82
2022-10-10T13:14:26.304Z,12.82
2022-10-10T13:16:53.121Z,12.81
2022-10-10T13:19:22.056Z,12.80
2022-10-10T13:21:49.524Z,12.80
2022-10-10T13:24:17.750Z,12.78
2022-10-10T13:26:49.229Z,12.77
2022-10-10T13:29:26.846Z,12.76
2022-10-10T13:31:54.664Z,12.75
2022-10-10T13:34:27.232Z,12.74
2022-10-10T13:36:56.128Z,12.74
2022-10-10T13:39:23.438Z,12.73
2022-10-10T13:41:50.260Z,12.73
2022-10-10T13:44:22.028Z,12.72
2022-10-10T13:46:48.754Z,12.74
2022-10-10T13:49:23.886Z,12.73
2022-10-10T13:52:02.353Z,12.69
2022-10-10T13:54:45.437Z,12.67
2022-10-10T13:57:14.649Z,12.63
2022-10-10T13:59:41.906Z,12.60
2022-10-10T14:02:11.756Z,12.56
2022-10-10T14:04:39.670Z,12.52
2022-10-10T14:07:10.910Z,12.45
2022-10-10T14:09:47.958Z,12.43
2022-10-10T14:12:25.002Z,12.40
2022-10-10T14:14:52.849Z,12.37
2022-10-10T14:17:19.643Z,12.34
2022-10-10T14:19:46.996Z,12.31
2022-10-10T14:22:13.853Z,12.29
2022-10-10T14:24:40.566Z,12.25
2022-10-10T14:27:16.326Z,12.21
2022-10-10T14:29:43.106Z,12.16
2022-10-10T14:32:10.944Z,12.12
2022-10-10T14:34:37.918Z,12.10
2022-10-10T14:37:04.906Z,12.06
2022-10-10T14:39:31.598Z,12.02
2022-10-10T14:41:59.082Z,11.97
2022-10-10T14:44:25.782Z,11.90
2022-10-10T14:46:52.346Z,11.87
2022-10-10T14:49:19.835Z,11.85
2022-10-10T14:51:47.338Z,11.81
2022-10-10T14:54:14.404Z,11.77
2022-10-10T14:57:09.081Z,11.73
2022-10-10T14:59:47.331Z,11.67
2022-10-10T15:02:17.977Z,11.62
2022-10-10T15:04:44.616Z,11.57
2022-10-10T15:07:13.844Z,11.53
2022-10-10T15:09:56.595Z,11.46
2022-10-10T15:12:29.494Z,11.43
2022-10-10T15:14:56.304Z,11.39
2022-10-10T15:20:31.915Z,11.30
2022-10-10T15:23:05.408Z,11.24
2022-10-10T15:25:34.169Z,11.19
2022-10-10T15:28:02.001Z,11.13
2022-10-10T15:30:28.733Z,11.08
2022-10-10T15:32:56.892Z,11.01
2022-10-10T15:35:23.678Z,10.94
2022-10-10T15:37:50.346Z,10.90
2022-10-10T15:40:19.181Z,10.85
2022-10-10T15:42:46.555Z,10.81
2022-10-10T15:45:14.903Z,10.77
2022-10-10T15:47:49.766Z,10.74
2022-10-10T15:50:16.311Z,10.69
2022-10-10T15:52:42.888Z,10.64
2022-10-10T15:55:09.468Z,10.60
2022-10-10T15:57:35.907Z,10.56
2022-10-10T16:00:03.389Z,10.53
2022-10-10T16:02:40.325Z,10.48
2022-10-10T16:05:09.324Z,10.38
2022-10-10T16:07:46.773Z,10.25
2022-10-10T16:10:14.969Z,10.12
2022-10-10T16:12:44.204Z,10.02
2022-10-10T16:15:11.080Z,9.91
2022-10-10T16:17:38.014Z,9.82
2022-10-10T16:20:05.926Z,9.77
2022-10-10T16:22:33.572Z,9.72
2022-10-10T16:27:46.591Z,9.65
2022-10-10T16:30:13.252Z,9.62
2022-10-10T16:32:42.592Z,9.61
2022-10-10T16:35:10.303Z,9.59
2022-10-10T16:37:37.473Z,9.58
2022-10-10T16:40:05.118Z,9.57
2022-10-10T16:42:31.773Z,9.57
2022-10-10T16:44:58.898Z,9.58
2022-10-10T16:47:25.608Z,9.57
2022-10-10T16:49:52.387Z,9.56
2022-10-10T16:52:18.868Z,9.54
2022-10-10T16:54:48.717Z,9.54
2022-10-10T16:57:17.875Z,9.52
2022-10-10T16:59:44.535Z,9.51
2022-10-10T17:02:11.132Z,9.50
2022-10-10T17:04:37.653Z,9.49
2022-10-10T17:07:04.964Z,9.47
2022-10-10T17:09:31.530Z,9.46
2022-10-10T17:11:59.352Z,9.46
2022-10-10T17:14:25.945Z,9.44
2022-10-10T17:19:40.669Z,9.38
2022-10-10T17:22:07.318Z,9.37
2022-10-10T17:24:33.810Z,9.30
2022-10-10T17:27:00.251Z,9.22
2022-10-10T17:29:26.743Z,9.16
2022-10-10T17:31:53.189Z,9.08
2022-10-10T17:34:19.642Z,8.97
2022-10-10T17:36:46.388Z,8.87
2022-10-10T17:39:13.013Z,8.80
2022-10-10T17:41:39.891Z,8.74
2022-10-10T17:44:09.760Z,8.70
2022-10-10T17:46:37.187Z,8.62
2022-10-10T17:49:04.677Z,8.55
2022-10-10T17:51:31.504Z,8.45
2022-10-10T17:53:58.934Z,8.34
2022-10-10T17:56:25.680Z,8.23
2022-10-10T17:58:52.118Z,8.12
2022-10-10T18:01:18.985Z,8.02
2022-10-10T18:03:45.608Z,7.94
2022-10-10T18:06:14.780Z,7.84
2022-10-10T18:08:49.360Z,7.75
2022-10-10T18:11:21.388Z,7.65
2022-10-10T18:13:47.907Z,7.61
2022-10-10T18:16:16.501Z,7.57
2022-10-10T18:18:49.609Z,7.52
2022-10-10T18:21:18.160Z,7.44
2022-10-10T18:23:44.698Z,7.39
2022-10-10T18:26:24.964Z,7.37
2022-10-10T18:28:54.954Z,7.36
2022-10-10T18:31:26.903Z,7.37
2022-10-10T18:33:53.670Z,7.37
2022-10-10T18:36:25.142Z,7.38
2022-10-10T18:38:51.873Z,7.36
2022-10-10T18:41:21.845Z,7.39
2022-10-10T18:43:48.946Z,7.39
2022-10-10T18:46:17.731Z,7.38
2022-10-10T18:48:44.475Z,7.36
2022-10-10T18:51:11.746Z,7.34
2022-10-10T18:53:39.232Z,7.29
2022-10-10T18:56:06.117Z,7.24
2022-10-10T18:58:33.997Z,7.19
2022-10-10T19:01:02.267Z,7.16
2022-10-10T19:03:29.987Z,7.15
2022-10-10T19:05:56.575Z,7.14
2022-10-10T19:08:23.302Z,7.15
2022-10-10T19:10:50.101Z,7.16
2022-10-10T19:13:16.588Z,7.19
2022-10-10T19:15:43.154Z,7.21
2022-10-10T19:18:10.236Z,7.24
2022-10-10T19:20:38.502Z,7.27
2022-10-10T19:23:05.557Z,7.30
2022-10-10T19:25:39.952Z,7.32
2022-10-10T19:28:06.819Z,7.30
2022-10-10T19:30:40.604Z,7.27
2022-10-10T19:33:07.243Z,7.19
2022-10-10T19:35:41.592Z,7.15
2022-10-10T19:38:09.139Z,7.06
2022-10-10T19:40:42.504Z,6.98
2022-10-10T19:43:09.062Z,6.89
2022-10-10T19:45:43.177Z,6.83
2022-10-10T19:48:09.750Z,6.74
2022-10-10T19:50:40.040Z,6.66
2022-10-10T19:53:06.941Z,6.58
2022-10-10T19:55:33.453Z,6.51
2022-10-10T19:57:59.985Z,6.42
2022-10-10T20:00:26.713Z,6.37
2022-10-10T20:02:53.146Z,6.33
2022-10-10T20:05:20.102Z,6.26
2022-10-10T20:07:50.723Z,6.21
2022-10-10T20:10:18.505Z,6.17
2022-10-10T20:12:45.854Z,6.13
2022-10-10T20:15:12.374Z,6.09
2022-10-10T20:17:39.013Z,6.06
2022-10-10T20:20:06.089Z,6.02
2022-10-10T20:22:33.803Z,5.99
2022-10-10T20:25:01.426Z,5.94
2022-10-10T20:27:31.224Z,5.90
2022-10-10T20:29:58.004Z,5.86
2022-10-10T20:32:26.147Z,5.82
2022-10-10T20:34:52.787Z,5.78
2022-10-10T20:37:19.242Z,5.73
2022-10-10T20:39:45.967Z,5.70
2022-10-10T20:42:12.513Z,5.66
2022-10-10T20:44:39.834Z,5.63
2022-10-10T20:47:06.328Z,5.59
2022-10-10T20:49:32.956Z,5.55
2022-10-10T20:51:59.969Z,5.52
2022-10-10T20:54:26.619Z,5.48
2022-10-10T20:56:53.155Z,5.46
2022-10-10T20:59:20.372Z,5.42
2022-10-10T21:01:47.195Z,5.40
2022-10-10T21:04:13.965Z,5.37
2022-10-10T21:06:49.349Z,5.34
2022-10-10T21:09:15.902Z,5.30
2022-10-10T21:11:43.501Z,5.26
2022-10-10T21:14:11.291Z,5.23
2022-10-10T21:16:38.721Z,5.20
2022-10-10T21:19:11.159Z,5.17
2022-10-10T21:21:37.983Z,5.10
2022-10-10T21:24:05.362Z,5.07
2022-10-10T21:26:31.916Z,5.06
2022-10-10T21:29:00.018Z,5.06
2022-10-10T21:31:28.745Z,5.05
2022-10-10T21:33:59.315Z,5.05
2022-10-10T21:36:26.084Z,5.02
2022-10-10T21:38:56.279Z,5.00
2022-10-10T21:41:22.973Z,4.97
2022-10-10T21:43:54.125Z,4.95
2022-10-10T21:46:27.146Z,4.91
2022-10-10T21:48:54.726Z,4.88
2022-10-10T21:51:21.233Z,4.86
2022-10-10T21:53:48.353Z,4.83
2022-10-10T21:56:14.978Z,4.79
2022-10-10T21:58:42.103Z,4.76
2022-10-10T22:01:16.520Z,4.74
2022-10-10T22:03:43.712Z,4.72
2022-10-10T22:06:13.758Z,4.70
2022-10-10T22:08:43.239Z,4.68
2022-10-10T22:11:13.055Z,4.67
2022-10-10T22:13:39.722Z,4.65
2022-10-10T22:16:08.390Z,4.63
2022-10-10T22:18:35.740Z,4.61
2022-10-10T22:21:04.224Z,4.61
2022-10-10T22:23:30.867Z,4.58
2022-10-10T22:25:57.542Z,4.56
2022-10-10T22:28:24.131Z,4.56
2022-10-10T22:30:50.820Z,4.54
2022-10-10T22:33:17.654Z,4.52
2022-10-10T22:35:44.360Z,4.50
2022-10-10T22:38:15.148Z,4.48
2022-10-10T22:40:43.311Z,4.48
2022-10-10T22:43:09.830Z,4.48
2022-10-10T22:45:36.289Z,4.49
2022-10-10T22:48:03.007Z,4.51
2022-10-10T22:50:30.556Z,4.52
2022-10-10T22:52:57.028Z,4.55
2022-10-10T22:55:23.784Z,4.55
2022-10-10T22:57:50.489Z,4.55
2022-10-10T23:00:17.385Z,4.54
2022-10-10T23:02:44.072Z,4.52
2022-10-10T23:05:10.591Z,4.49
2022-10-10T23:07:39.704Z,4.47
2022-10-10T23:10:07.865Z,4.43
2022-10-10T23:12:34.830Z,4.41
2022-10-10T23:15:01.666Z,4.35
2022-10-10T23:17:28.158Z,4.34
2022-10-10T23:19:56.677Z,4.30
2022-10-10T23:22:23.216Z,4.26
2022-10-10T23:24:51.806Z,4.23
2022-10-10T23:27:18.348Z,4.18
2022-10-10T23:29:45.399Z,4.18
2022-10-10T23:32:11.973Z,4.14
2022-10-10T23:34:39.412Z,4.10
2022-10-10T23:37:06.072Z,4.04
2022-10-10T23:39:32.610Z,3.99
2022-10-10T23:41:59.056Z,3.96
2022-10-10T23:44:25.671Z,3.95
2022-10-10T23:46:52.154Z,3.94
2022-10-10T23:49:19.977Z,3.94
2022-10-10T23:51:46.789Z,3.92
2022-10-10T23:54:13.265Z,3.90
2022-10-10T23:56:40.598Z,3.87
2022-10-10T23:59:07.102Z,3.85
